Time;durP1;ratioP1;P1;durP2;ratioP2;P2;SDS_P1;SDS_P2;PMS_P1;PMS_P2;Temp;Humidity;BMP_temperature;BMP_pressure;BME280_temperature;BME280_humidity;BME280_pressure;Samples;Min_cycle;Max_cycle;Signal;HPM_P1;HPM_P2
2022/06/27 00:02:12;;;;;;;;;;;;;;;;;;5044604;28;47002;-77
2022/06/27 00:04:38;;;;;;;;;;;;;;;;;;5060422;28;45833;-76
2022/06/27 00:07:05;;;;;;;;;;;;;;;;;;5044296;28;47761;-77
2022/06/27 00:09:31;;;;;;;;;;;;;;;;;;5059068;28;45805;-77
2022/06/27 00:11:59;;;;;;;;;;;;;;;;;;5055518;28;46679;-77
2022/06/27 00:14:25;;;;;;;;;;;;;;;;;;5057365;28;45218;-77
2022/06/27 00:16:52;;;;;;;;;;;;;;;;;;5059650;28;45809;-77
2022/06/27 00:19:18;;;;;;;;;;;;;;;;;;5059360;28;47570;-77
2022/06/27 00:21:44;;;;;;;;;;;;;;;;;;5063751;28;46427;-76
2022/06/27 00:24:11;;;;;;;;;;;;;;;;;;5045754;28;45826;-77
2022/06/27 00:26:37;;;;;;;;;;;;;;;;;;5059458;28;48726;-76
2022/06/27 00:29:03;;;;;;;;;;;;;;;;;;5058358;28;49485;-77
2022/06/27 00:31:29;;;;;;;;;;;;;;;;;;5044935;28;45803;-77
2022/06/27 00:33:56;;;;;;;;;;;;;;;;;;5045573;28;47286;-77
2022/06/27 00:36:22;;;;;;;;;;;;;;;;;;5063217;28;44737;-77
2022/06/27 00:38:48;;;;;;;;;;;;;;;;;;5042106;28;46836;-76
2022/06/27 00:41:15;;;;;;;;;;;;;;;;;;5043910;28;47153;-76
2022/06/27 00:43:41;;;;;;;;;;;;;;;;;;5058906;28;45892;-77
2022/06/27 00:46:07;;;;;;;;;;;;;;;;;;5060680;28;44982;-76
2022/06/27 00:48:34;;;;;;;;;;;;;;;;;;5052512;28;48104;-76
2022/06/27 00:51:00;;;;;;;;;;;;;;;;;;5042970;28;45891;-77
2022/06/27 00:53:28;;;;;;;;;;;;;;;;;;5061585;28;47371;-77
2022/06/27 00:55:55;;;;;;;;;;;;;;;;;;5062096;28;45998;-77
2022/06/27 00:58:21;;;;;;;;;;;;;;;;;;5056908;28;44681;-77
2022/06/27 01:00:47;;;;;;;;;;;;;;;;;;5044810;28;48069;-77
2022/06/27 01:03:13;;;;;;;;;;;;;;;;;;5042300;28;44804;-78
2022/06/27 01:05:51;;;;;;;;;;;;;;;;;;5044080;28;46624;-77
2022/06/27 01:08:17;;;;;;;;;;;;;;;;;;5054420;28;49822;-75
2022/06/27 01:10:44;;;;;;;;;;;;;;;;;;5060965;28;42562;-76
2022/06/27 01:13:10;;;;;;;;;;;;;;;;;;5054093;28;47954;-76
2022/06/27 01:15:36;;;;;;;;;;;;;;;;;;5061375;28;48138;-76
2022/06/27 01:18:03;;;;;;;;;;;;;;;;;;5062368;28;47472;-77
2022/06/27 01:20:29;;;;;;;;;;;;;;;;;;5056302;28;46328;-76
2022/06/27 01:22:55;;;;;;;;;;;;;;;;;;5041356;28;46245;-76
2022/06/27 01:25:22;;;;;;;;;;;;;;;;;;5062406;28;45360;-78
2022/06/27 01:27:48;;;;;;;;;;;;;;;;;;5044468;28;48147;-76
2022/06/27 01:30:14;;;;;;;;;;;;;;;;;;5057995;28;44723;-77
2022/06/27 01:32:42;;;;;;;;;;;;;;;;;;5063736;28;47447;-77
2022/06/27 01:35:08;;;;;;;;;;;;;;;;;;5047062;28;45319;-77
2022/06/27 01:37:34;;;;;;;;;;;;;;;;;;5057498;28;44741;-77
2022/06/27 01:40:01;;;;;;;;;;;;;;;;;;5055229;28;45227;-77
2022/06/27 01:42:27;;;;;;;;;;;;;;;;;;5065335;28;42861;-77
2022/06/27 01:44:53;;;;;;;;;;;;;;;;;;5048126;28;46166;-77
2022/06/27 01:47:20;;;;;;;;;;;;;;;;;;5062997;28;46387;-77
2022/06/27 01:49:46;;;;;;;;;;;;;;;;;;5063301;28;44577;-77
2022/06/27 01:52:12;;;;;;;;;;;;;;;;;;5065584;28;47501;-78
2022/06/27 01:54:38;;;;;;;;;;;;;;;;;;5048210;28;48846;-77
2022/06/27 01:57:05;;;;;;;;;;;;;;;;;;5064501;28;43865;-77
2022/06/27 01:59:31;;;;;;;;;;;;;;;;;;5061344;28;44525;-80
2022/06/27 02:01:58;;;;;;;;;;;;;;;;;;5048643;28;47922;-78
2022/06/27 02:04:24;;;;;;;;;;;;;;;;;;5046790;28;46739;-78
2022/06/27 02:06:51;;;;;;;;;;;;;;;;;;5042706;28;47261;-78
2022/06/27 02:09:17;;;;;;;;;;;;;;;;;;5044780;28;45729;-79
2022/06/27 02:11:43;;;;;;;;;;;;;;;;;;5066510;28;47867;-78
2022/06/27 02:14:10;;;;;;;;;;;;;;;;;;5066766;28;47022;-78
2022/06/27 02:16:38;;;;;;;;;;;;;;;;;;5064260;28;44106;-77
2022/06/27 02:19:04;;;;;;;;;;;;;;;;;;5038793;28;43663;-77
2022/06/27 02:21:30;;;;;;;;;;;;;;;;;;5047183;28;45011;-77
2022/06/27 02:23:57;;;;;;;;;;;;;;;;;;5063783;28;47561;-77
2022/06/27 02:26:23;;;;;;;;;;;;;;;;;;5061601;28;48267;-77
2022/06/27 02:28:50;;;;;;;;;;;;;;;;;;5053034;28;42653;-77
2022/06/27 02:31:16;;;;;;;;;;;;;;;;;;5047201;28;47676;-77
2022/06/27 02:33:42;;;;;;;;;;;;;;;;;;5065353;28;44335;-77
2022/06/27 02:36:09;;;;;;;;;;;;;;;;;;5041511;28;44707;-77
2022/06/27 02:38:35;;;;;;;;;;;;;;;;;;5060805;28;47726;-77
2022/06/27 02:41:01;;;;;;;;;;;;;;;;;;5045841;28;45136;-77
2022/06/27 02:43:28;;;;;;;;;;;;;;;;;;5047746;28;45091;-77
2022/06/27 02:45:54;;;;;;;;;;;;;;;;;;5056555;28;46957;-77
2022/06/27 02:48:21;;;;;;;;;;;;;;;;;;5045966;28;44911;-77
2022/06/27 02:50:47;;;;;;;;;;;;;;;;;;5053044;28;46193;-77
2022/06/27 02:53:13;;;;;;;;;;;;;;;;;;5062708;28;46634;-77
2022/06/27 02:55:40;;;;;;;;;;;;;;;;;;5059169;28;43988;-77
2022/06/27 02:58:06;;;;;;;;;;;;;;;;;;5045458;28;44615;-77
2022/06/27 03:00:32;;;;;;;;;;;;;;;;;;5045926;28;48610;-77
2022/06/27 03:02:59;;;;;;;;;;;;;;;;;;5043603;28;47381;-77
2022/06/27 03:05:25;;;;;;;;;;;;;;;;;;5060413;28;49268;-77
2022/06/27 03:07:51;;;;;;;;;;;;;;;;;;5065046;28;42992;-77
2022/06/27 03:10:18;;;;;;;;;;;;;;;;;;5063204;28;44386;-77
2022/06/27 03:12:44;;;;;;;;;;;;;;;;;;5047864;28;45429;-77
2022/06/27 03:15:10;;;;;;;;;;;;;;;;;;5062314;28;46117;-77
2022/06/27 03:17:36;;;;;;;;;;;;;;;;;;5044050;28;48397;-77
2022/06/27 03:20:03;;;;;;;;;;;;;;;;;;5035666;28;47269;-77
2022/06/27 03:22:29;;;;;;;;;;;;;;;;;;5043426;28;42888;-77
2022/06/27 03:24:56;;;;;;;;;;;;;;;;;;5044720;28;46530;-77
2022/06/27 03:27:22;;;;;;;;;;;;;;;;;;5063699;28;44749;-77
2022/06/27 03:29:48;;;;;;;;;;;;;;;;;;5045676;28;44364;-77
2022/06/27 03:32:15;;;;;;;;;;;;;;;;;;5063873;28;46545;-77
2022/06/27 03:34:41;;;;;;;;;;;;;;;;;;5039823;28;45844;-77
2022/06/27 03:37:08;;;;;;;;;;;;;;;;;;5058131;28;45452;-77
2022/06/27 03:39:34;;;;;;;;;;;;;;;;;;5046249;28;46450;-78
2022/06/27 03:42:00;;;;;;;;;;;;;;;;;;5044097;28;44281;-77
2022/06/27 03:44:29;;;;;;;;;;;;;;;;;;5060716;28;48377;-77
2022/06/27 03:46:55;;;;;;;;;;;;;;;;;;5043783;28;34578;-77
2022/06/27 03:52:06;;;;;;;;;;;;;;;;;;5063190;28;47992;-77
2022/06/27 03:54:32;;;;;;;;;;;;;;;;;;5060808;28;42634;-77
2022/06/27 03:56:59;;;;;;;;;;;;;;;;;;5062458;28;47444;-77
2022/06/27 03:59:25;;;;;;;;;;;;;;;;;;5059919;28;48104;-77
2022/06/27 04:01:51;;;;;;;;;;;;;;;;;;5061853;28;43433;-78
2022/06/27 04:04:17;;;;;;;;;;;;;;;;;;5058085;28;46829;-78
2022/06/27 04:06:44;;;;;;;;;;;;;;;;;;5046107;28;45746;-78
2022/06/27 04:09:10;;;;;;;;;;;;;;;;;;5045705;28;44649;-78
2022/06/27 04:11:37;;;;;;;;;;;;;;;;;;5055976;28;44564;-78
2022/06/27 04:14:03;;;;;;;;;;;;;;;;;;5044952;28;43407;-78
2022/06/27 04:16:29;;;;;;;;;;;;;;;;;;5061246;28;46470;-77
2022/06/27 04:18:55;;;;;;;;;;;;;;;;;;5045838;28;45634;-77
2022/06/27 04:21:22;;;;;;;;;;;;;;;;;;5037961;28;45069;-78
2022/06/27 04:23:48;;;;;;;;;;;;;;;;;;5055390;28;47546;-78
2022/06/27 04:26:14;;;;;;;;;;;;;;;;;;5061557;28;48260;-78
2022/06/27 04:28:40;;;;;;;;;;;;;;;;;;5043902;28;45746;-78
2022/06/27 04:31:07;;;;;;;;;;;;;;;;;;5061132;28;47953;-78
2022/06/27 04:33:33;;;;;;;;;;;;;;;;;;5044022;28;45370;-78
2022/06/27 04:36:02;;;;;;;;;;;;;;;;;;5057439;28;47450;-78
2022/06/27 04:38:31;;;;;;;;;;;;;;;;;;5062357;28;46627;-78
2022/06/27 04:40:57;;;;;;;;;;;;;;;;;;5044646;28;44628;-78
2022/06/27 04:43:26;;;;;;;;;;;;;;;;;;5039880;28;43765;-78
2022/06/27 04:45:52;;;;;;;;;;;;;;;;;;5058496;28;48864;-78
2022/06/27 04:48:20;;;;;;;;;;;;;;;;;;5043374;28;42846;-78
2022/06/27 04:50:47;;;;;;;;;;;;;;;;;;5037228;28;47775;-78
2022/06/27 04:53:13;;;;;;;;;;;;;;;;;;5045158;28;45497;-78
2022/06/27 04:55:40;;;;;;;;;;;;;;;;;;5060517;28;46464;-78
2022/06/27 04:58:06;;;;;;;;;;;;;;;;;;5061578;28;48294;-77
2022/06/27 05:00:33;;;;;;;;;;;;;;;;;;5043502;28;19979;-77
2022/06/27 05:03:00;;;;;;;;;;;;;;;;;;5057550;28;47907;-77
2022/06/27 05:05:26;;;;;;;;;;;;;;;;;;5050452;28;47230;-77
2022/06/27 05:07:52;;;;;;;;;;;;;;;;;;5064274;28;44681;-77
2022/06/27 05:10:18;;;;;;;;;;;;;;;;;;5049664;28;47427;-77
2022/06/27 05:12:45;;;;;;;;;;;;;;;;;;5045189;28;48079;-77
2022/06/27 05:15:11;;;;;;;;;;;;;;;;;;5051801;28;47454;-77
2022/06/27 05:17:37;;;;;;;;;;;;;;;;;;5068520;28;46054;-76
2022/06/27 05:20:05;;;;;;;;;;;;;;;;;;5036913;28;42229;-77
2022/06/27 05:22:31;;;;;;;;;;;;;;;;;;5050910;28;43974;-77
2022/06/27 05:24:58;;;;;;;;;;;;;;;;;;5049435;28;48179;-77
2022/06/27 05:27:24;;;;;;;;;;;;;;;;;;5066834;28;47662;-77
2022/06/27 05:29:50;;;;;;;;;;;;;;;;;;5065348;28;47470;-77
2022/06/27 05:32:17;;;;;;;;;;;;;;;;;;5048978;28;47064;-77
2022/06/27 05:34:43;;;;;;;;;;;;;;;;;;5067517;28;44515;-77
2022/06/27 05:37:09;;;;;;;;;;;;;;;;;;5039355;28;47672;-77
2022/06/27 05:39:36;;;;;;;;;;;;;;;;;;5046721;28;46223;-77
2022/06/27 05:42:03;;;;;;;;;;;;;;;;;;5067221;28;44609;-77
2022/06/27 05:44:29;;;;;;;;;;;;;;;;;;5051205;28;46775;-77
2022/06/27 05:46:56;;;;;;;;;;;;;;;;;;5041993;28;44727;-76
2022/06/27 05:49:24;;;;;;;;;;;;;;;;;;5067847;28;48206;-77
2022/06/27 05:51:51;;;;;;;;;;;;;;;;;;5050502;28;46438;-77
2022/06/27 05:54:17;;;;;;;;;;;;;;;;;;5048460;28;43693;-77
2022/06/27 05:56:44;;;;;;;;;;;;;;;;;;5067593;28;48098;-77
2022/06/27 05:59:10;;;;;;;;;;;;;;;;;;5065857;28;44564;-77
2022/06/27 06:01:37;;;;;;;;;;;;;;;;;;5063465;28;44927;-77
2022/06/27 06:04:05;;;;;;;;;;;;;;;;;;5049933;28;48137;-77
2022/06/27 06:06:31;;;;;;;;;;;;;;;;;;5068047;28;43044;-77
2022/06/27 06:08:59;;;;;;;;;;;;;;;;;;5066466;28;46495;-77
2022/06/27 06:11:27;;;;;;;;;;;;;;;;;;5053924;28;46131;-77
2022/06/27 06:13:54;;;;;;;;;;;;;;;;;;5062669;28;42204;-77
2022/06/27 06:16:20;;;;;;;;;;;;;;;;;;5047383;28;46737;-77
2022/06/27 06:18:52;;;;;;;;;;;;;;;;;;5063286;28;44944;-77
2022/06/27 06:21:19;;;;;;;;;;;;;;;;;;5061767;28;47115;-77
2022/06/27 06:23:46;;;;;;;;;;;;;;;;;;5061019;28;45134;-77
2022/06/27 06:26:16;;;;;;;;;;;;;;;;;;5060204;28;44510;-77
2022/06/27 06:28:42;;;;;;;;;;;;;;;;;;5064670;28;47668;-77
2022/06/27 06:31:08;;;;;;;;;;;;;;;;;;5039887;28;48169;-77
2022/06/27 06:33:35;;;;;;;;;;;;;;;;;;5060091;28;45821;-77
2022/06/27 06:36:01;;;;;;;;;;;;;;;;;;5061014;28;45890;-77
2022/06/27 06:38:29;;;;;;;;;;;;;;;;;;5041174;28;48137;-77
2022/06/27 06:40:56;;;;;;;;;;;;;;;;;;5037809;28;47476;-77
2022/06/27 06:43:22;;;;;;;;;;;;;;;;;;5040787;28;48289;-77
2022/06/27 06:45:48;;;;;;;;;;;;;;;;;;5060059;28;43020;-77
2022/06/27 06:48:17;;;;;;;;;;;;;;;;;;5043378;28;45289;-77
2022/06/27 06:50:43;;;;;;;;;;;;;;;;;;5063086;28;47760;-77
2022/06/27 06:53:10;;;;;;;;;;;;;;;;;;5042460;28;45854;-77
2022/06/27 06:55:36;;;;;;;;;;;;;;;;;;5058148;28;47868;-78
2022/06/27 06:58:02;;;;;;;;;;;;;;;;;;5043900;28;46247;-77
2022/06/27 07:00:29;;;;;;;;;;;;;;;;;;5055964;28;45926;-77
2022/06/27 07:02:56;;;;;;;;;;;;;;;;;;5057835;28;48083;-77
2022/06/27 07:05:22;;;;;;;;;;;;;;;;;;5037152;28;45549;-77
2022/06/27 07:07:51;;;;;;;;;;;;;;;;;;5059871;28;47442;-77
2022/06/27 07:10:18;;;;;;;;;;;;;;;;;;5038659;28;46976;-77
2022/06/27 07:12:45;;;;;;;;;;;;;;;;;;5059093;28;46005;-78
2022/06/27 07:15:12;;;;;;;;;;;;;;;;;;5059763;28;45261;-78
2022/06/27 07:17:39;;;;;;;;;;;;;;;;;;5058060;28;48137;-77
2022/06/27 07:20:05;;;;;;;;;;;;;;;;;;5037208;28;46037;-76
2022/06/27 07:22:32;;;;;;;;;;;;;;;;;;5064595;28;46035;-78
2022/06/27 07:24:58;;;;;;;;;;;;;;;;;;5061924;28;44706;-77
2022/06/27 07:27:24;;;;;;;;;;;;;;;;;;5041348;28;46817;-76
2022/06/27 07:29:51;;;;;;;;;;;;;;;;;;5066136;28;45772;-75
2022/06/27 07:32:18;;;;;;;;;;;;;;;;;;5038552;28;45975;-77
2022/06/27 07:34:44;;;;;;;;;;;;;;;;;;5062886;28;46430;-77
2022/06/27 07:37:10;;;;;;;;;;;;;;;;;;5046356;28;46925;-78
2022/06/27 07:39:37;;;;;;;;;;;;;;;;;;5062673;28;44480;-78
2022/06/27 07:42:03;;;;;;;;;;;;;;;;;;5053569;28;47562;-76
2022/06/27 07:44:30;;;;;;;;;;;;;;;;;;5041193;28;46984;-76
2022/06/27 07:46:57;;;;;;;;;;;;;;;;;;5042752;28;47587;-75
2022/06/27 07:49:24;;;;;;;;;;;;;;;;;;5048505;28;49265;-76
2022/06/27 07:51:50;;;;;;;;;;;;;;;;;;5048569;28;43601;-77
2022/06/27 07:54:19;;;;;;;;;;;;;;;;;;5058069;28;45762;-75
2022/06/27 07:56:46;;;;;;;;;;;;;;;;;;5062802;28;46925;-77
2022/06/27 07:59:28;;;;;;;;;;;;;;;;;;5044051;28;44709;-77
2022/06/27 08:01:55;;;;;;;;;;;;;;;;;;5065002;28;44503;-77
2022/06/27 08:04:22;;;;;;;;;;;;;;;;;;5043914;28;45535;-75
2022/06/27 08:06:50;;;;;;;;;;;;;;;;;;5059587;28;46269;-76
2022/06/27 08:09:19;;;;;;;;;;;;;;;;;;5052827;28;45137;-77
2022/06/27 08:11:46;;;;;;;;;;;;;;;;;;5059066;28;45906;-75
2022/06/27 08:14:12;;;;;;;;;;;;;;;;;;5059713;28;46569;-76
2022/06/27 08:16:39;;;;;;;;;;;;;;;;;;5057897;28;48321;-77
2022/06/27 08:19:05;;;;;;;;;;;;;;;;;;5062677;28;44918;-77
2022/06/27 08:21:34;;;;;;;;;;;;;;;;;;5040444;28;47853;-76
2022/06/27 08:24:00;;;;;;;;;;;;;;;;;;5056095;28;45942;-77
2022/06/27 08:26:27;;;;;;;;;;;;;;;;;;5057427;28;44703;-76
2022/06/27 08:28:54;;;;;;;;;;;;;;;;;;5057684;28;47404;-75
2022/06/27 08:31:21;;;;;;;;;;;;;;;;;;5042662;28;42188;-75
2022/06/27 08:33:50;;;;;;;;;;;;;;;;;;5048497;28;47896;-77
2022/06/27 08:36:17;;;;;;;;;;;;;;;;;;5042824;28;44428;-78
2022/06/27 08:38:45;;;;;;;;;;;;;;;;;;5038822;28;45815;-76
2022/06/27 08:41:12;;;;;;;;;;;;;;;;;;5058078;28;46537;-78
2022/06/27 08:43:38;;;;;;;;;;;;;;;;;;5057731;28;49715;-78
2022/06/27 08:46:04;;;;;;;;;;;;;;;;;;5057723;28;45281;-76
2022/06/27 08:48:31;;;;;;;;;;;;;;;;;;5058701;28;46446;-75
2022/06/27 08:50:59;;;;;;;;;;;;;;;;;;5036722;28;44611;-75
2022/06/27 08:53:26;;;;;;;;;;;;;;;;;;5043648;28;46344;-78
2022/06/27 08:55:52;;;;;;;;;;;;;;;;;;5052935;28;47001;-78
2022/06/27 08:58:19;;;;;;;;;;;;;;;;;;5058668;28;45355;-78
2022/06/27 09:00:45;;;;;;;;;;;;;;;;;;5048455;28;47561;-75
2022/06/27 09:03:12;;;;;;;;;;;;;;;;;;5055936;28;45083;-77
2022/06/27 09:05:38;;;;;;;;;;;;;;;;;;5033087;28;45359;-77
2022/06/27 09:08:04;;;;;;;;;;;;;;;;;;5052136;28;45363;-77
2022/06/27 09:10:31;;;;;;;;;;;;;;;;;;5042359;28;45163;-76
2022/06/27 09:13:02;;;;;;;;;;;;;;;;;;5033826;28;46958;-75
2022/06/27 09:15:29;;;;;;;;;;;;;;;;;;5034004;28;44927;-76
2022/06/27 09:17:56;;;;;;;;;;;;;;;;;;5036765;28;45183;-78
2022/06/27 09:20:22;;;;;;;;;;;;;;;;;;5054991;28;45788;-75
2022/06/27 09:22:49;;;;;;;;;;;;;;;;;;5060439;28;48249;-75
2022/06/27 09:25:20;;;;;;;;;;;;;;;;;;5055577;28;44384;-77
2022/06/27 09:27:47;;;;;;;;;;;;;;;;;;5054998;28;46487;-77
2022/06/27 09:30:14;;;;;;;;;;;;;;;;;;5037494;28;45283;-76
2022/06/27 09:32:40;;;;;;;;;;;;;;;;;;5030958;28;44869;-77
2022/06/27 09:35:06;;;;;;;;;;;;;;;;;;5044977;28;48074;-77
2022/06/27 09:37:33;;;;;;;;;;;;;;;;;;5046824;28;45694;-77
2022/06/27 09:39:59;;;;;;;;;;;;;;;;;;5036383;28;45667;-77
2022/06/27 09:42:26;;;;;;;;;;;;;;;;;;5052395;28;46014;-75
2022/06/27 09:44:52;;;;;;;;;;;;;;;;;;5057901;28;44844;-77
2022/06/27 09:47:19;;;;;;;;;;;;;;;;;;5051794;28;47513;-74
2022/06/27 09:49:46;;;;;;;;;;;;;;;;;;5036249;28;46997;-76
2022/06/27 09:52:12;;;;;;;;;;;;;;;;;;5036515;28;45696;-78
2022/06/27 09:54:39;;;;;;;;;;;;;;;;;;5039659;28;47315;-78
2022/06/27 09:57:05;;;;;;;;;;;;;;;;;;5055930;28;44838;-78
2022/06/27 09:59:37;;;;;;;;;;;;;;;;;;5060119;28;44930;-74
2022/06/27 10:02:04;;;;;;;;;;;;;;;;;;5063000;28;46968;-75
2022/06/27 10:04:31;;;;;;;;;;;;;;;;;;5045991;28;43852;-75
2022/06/27 10:06:58;;;;;;;;;;;;;;;;;;5058442;28;46565;-76
2022/06/27 10:09:25;;;;;;;;;;;;;;;;;;5052395;28;48012;-76
2022/06/27 10:11:51;;;;;;;;;;;;;;;;;;5034690;28;44024;-75
2022/06/27 10:14:17;;;;;;;;;;;;;;;;;;5049148;28;46308;-76
2022/06/27 10:16:43;;;;;;;;;;;;;;;;;;5042896;28;44629;-76
2022/06/27 10:19:10;;;;;;;;;;;;;;;;;;5043134;28;45366;-77
2022/06/27 10:21:36;;;;;;;;;;;;;;;;;;5041682;28;47206;-76
2022/06/27 10:24:02;;;;;;;;;;;;;;;;;;5052958;28;45892;-76
2022/06/27 10:26:28;;;;;;;;;;;;;;;;;;5029685;28;46500;-76
2022/06/27 10:28:54;;;;;;;;;;;;;;;;;;5048966;28;48582;-76
2022/06/27 10:31:21;;;;;;;;;;;;;;;;;;5037402;28;44759;-75
2022/06/27 10:33:47;;;;;;;;;;;;;;;;;;5038295;28;46908;-76
2022/06/27 10:36:17;;;;;;;;;;;;;;;;;;5056323;28;44440;-76
2022/06/27 10:38:43;;;;;;;;;;;;;;;;;;5026619;28;45685;-76
2022/06/27 10:41:09;;;;;;;;;;;;;;;;;;5029862;28;46615;-76
2022/06/27 10:43:36;;;;;;;;;;;;;;;;;;5049163;28;45847;-75
2022/06/27 10:46:02;;;;;;;;;;;;;;;;;;5040603;28;46486;-75
2022/06/27 10:48:28;;;;;;;;;;;;;;;;;;5055540;28;48296;-76
2022/06/27 10:50:54;;;;;;;;;;;;;;;;;;5043895;28;45855;-76
2022/06/27 10:53:21;;;;;;;;;;;;;;;;;;5058651;28;45577;-76
2022/06/27 10:55:47;;;;;;;;;;;;;;;;;;5061980;28;46275;-75
2022/06/27 10:58:13;;;;;;;;;;;;;;;;;;5054955;28;43101;-75
2022/06/27 11:00:39;;;;;;;;;;;;;;;;;;5036551;28;46962;-76
2022/06/27 11:03:06;;;;;;;;;;;;;;;;;;5029836;28;45116;-76
2022/06/27 11:05:32;;;;;;;;;;;;;;;;;;5034188;28;45081;-76
2022/06/27 11:07:59;;;;;;;;;;;;;;;;;;5040942;28;46856;-75
2022/06/27 11:10:25;;;;;;;;;;;;;;;;;;5054723;28;45333;-76
2022/06/27 11:12:51;;;;;;;;;;;;;;;;;;5037473;28;46358;-76
2022/06/27 11:15:18;;;;;;;;;;;;;;;;;;5052076;28;46942;-75
2022/06/27 11:17:44;;;;;;;;;;;;;;;;;;5038222;28;45894;-75
2022/06/27 11:20:11;;;;;;;;;;;;;;;;;;5058884;28;47351;-76
2022/06/27 11:22:58;;;;;;;;;;;;;;;;;;5054764;28;19931;-76
2022/06/27 11:25:24;;;;;;;;;;;;;;;;;;5052700;28;47127;-76
2022/06/27 11:27:50;;;;;;;;;;;;;;;;;;5060278;28;46228;-76
2022/06/27 11:33:02;;;;;;;;;;;;;;;;;;5055585;28;44683;-75
2022/06/27 11:35:28;;;;;;;;;;;;;;;;;;5029613;28;46995;-76
2022/06/27 11:37:54;;;;;;;;;;;;;;;;;;5059613;28;43819;-75
2022/06/27 11:40:21;;;;;;;;;;;;;;;;;;5053063;28;45900;-76
2022/06/27 11:42:47;;;;;;;;;;;;;;;;;;5043896;28;48193;-75
2022/06/27 11:45:13;;;;;;;;;;;;;;;;;;5044856;28;46459;-75
2022/06/27 11:47:40;;;;;;;;;;;;;;;;;;5039835;28;44302;-75
2022/06/27 11:50:06;;;;;;;;;;;;;;;;;;5051495;28;44347;-76
2022/06/27 11:52:33;;;;;;;;;;;;;;;;;;5040511;28;46041;-76
2022/06/27 11:54:59;;;;;;;;;;;;;;;;;;5049282;28;48006;-76
2022/06/27 11:57:25;;;;;;;;;;;;;;;;;;5030434;28;44924;-76
2022/06/27 11:59:51;;;;;;;;;;;;;;;;;;5055013;28;47399;-76
2022/06/27 12:02:18;;;;;;;;;;;;;;;;;;5057366;28;45751;-75
2022/06/27 12:04:44;;;;;;;;;;;;;;;;;;5054963;28;46123;-75
2022/06/27 12:07:10;;;;;;;;;;;;;;;;;;5040743;28;47989;-76
2022/06/27 12:09:36;;;;;;;;;;;;;;;;;;5058797;28;44916;-75
2022/06/27 12:12:03;;;;;;;;;;;;;;;;;;5036193;28;46343;-75
2022/06/27 12:14:29;;;;;;;;;;;;;;;;;;5055566;28;47041;-76
2022/06/27 12:16:56;;;;;;;;;;;;;;;;;;5058063;28;44312;-76
2022/06/27 12:19:24;;;;;;;;;;;;;;;;;;5041659;28;46842;-76
2022/06/27 12:21:50;;;;;;;;;;;;;;;;;;5041167;28;47319;-77
2022/06/27 12:24:17;;;;;;;;;;;;;;;;;;5055752;28;44546;-76
2022/06/27 12:26:43;;;;;;;;;;;;;;;;;;5041012;28;49837;-76
2022/06/27 12:29:09;;;;;;;;;;;;;;;;;;5059152;28;44923;-77
2022/06/27 12:31:36;;;;;;;;;;;;;;;;;;5061029;28;46487;-76
2022/06/27 12:34:02;;;;;;;;;;;;;;;;;;5042093;28;47497;-78
2022/06/27 12:36:30;;;;;;;;;;;;;;;;;;5066877;28;43321;-80
2022/06/27 12:38:56;;;;;;;;;;;;;;;;;;5052568;28;46512;-83
2022/06/27 12:41:22;;;;;;;;;;;;;;;;;;5056727;28;45729;-83
2022/06/27 12:43:49;;;;;;;;;;;;;;;;;;5044496;28;43743;-84
2022/06/27 12:46:16;;;;;;;;;;;;;;;;;;5034613;28;47602;-83
2022/06/27 12:48:42;;;;;;;;;;;;;;;;;;5041069;28;46016;-82
2022/06/27 12:51:08;;;;;;;;;;;;;;;;;;5057607;28;46366;-82
2022/06/27 12:53:35;;;;;;;;;;;;;;;;;;5044167;28;50802;-81
2022/06/27 12:56:02;;;;;;;;;;;;;;;;;;5061197;28;44659;-81
2022/06/27 12:58:28;;;;;;;;;;;;;;;;;;5038112;28;48135;-81
2022/06/27 13:00:54;;;;;;;;;;;;;;;;;;5047693;28;44694;-80
2022/06/27 13:03:21;;;;;;;;;;;;;;;;;;5046246;28;44338;-81
2022/06/27 13:05:47;;;;;;;;;;;;;;;;;;5045353;28;46265;-82
2022/06/27 13:08:13;;;;;;;;;;;;;;;;;;5045280;28;44430;-81
2022/06/27 13:10:39;;;;;;;;;;;;;;;;;;5046182;28;44991;-82
2022/06/27 13:13:06;;;;;;;;;;;;;;;;;;5021554;28;48671;-84
2022/06/27 13:15:34;;;;;;;;;;;;;;;;;;5027318;28;44611;-85
2022/06/27 13:18:03;;;;;;;;;;;;;;;;;;5048580;28;46660;-81
2022/06/27 13:20:29;;;;;;;;;;;;;;;;;;5027726;28;47168;-82
2022/06/27 13:22:55;;;;;;;;;;;;;;;;;;5037285;28;46830;-80
2022/06/27 13:25:22;;;;;;;;;;;;;;;;;;5032821;28;46584;-81
2022/06/27 13:27:48;;;;;;;;;;;;;;;;;;5028249;28;44929;-80
2022/06/27 13:30:14;;;;;;;;;;;;;;;;;;5042578;28;45045;-81
2022/06/27 13:32:40;;;;;;;;;;;;;;;;;;5034364;28;46826;-81
2022/06/27 13:35:07;;;;;;;;;;;;;;;;;;5032376;28;44431;-82
2022/06/27 13:37:34;;;;;;;;;;;;;;;;;;5043493;28;44697;-82
2022/06/27 13:40:01;;;;;;;;;;;;;;;;;;5049221;28;44359;-81
2022/06/27 13:42:27;;;;;;;;;;;;;;;;;;5030091;28;46005;-82
2022/06/27 13:44:54;;;;;;;;;;;;;;;;;;5041123;28;46468;-86
2022/06/27 13:47:20;;;;;;;;;;;;;;;;;;5028363;28;47037;-82
2022/06/27 13:49:54;;;;;;;;;;;;;;;;;;5031288;28;43278;-82
2022/06/27 13:52:20;;;;;;;;;;;;;;;;;;5045270;28;46510;-87
2022/06/27 13:54:46;;;;;;;;;;;;;;;;;;5046913;28;45587;-84
2022/06/27 13:57:13;;;;;;;;;;;;;;;;;;5041603;28;46618;-82
2022/06/27 13:59:43;;;;;;;;;;;;;;;;;;5048457;28;48842;-81
2022/06/27 14:02:09;;;;;;;;;;;;;;;;;;5041697;28;44604;-82
2022/06/27 14:04:36;;;;;;;;;;;;;;;;;;5040548;28;46354;-81
2022/06/27 14:09:47;;;;;;;;;;;;;;;;;;5039957;28;43026;-84
2022/06/27 14:12:13;;;;;;;;;;;;;;;;;;5048752;28;45562;-82
2022/06/27 14:14:40;;;;;;;;;;;;;;;;;;5033734;28;33922;-85
2022/06/27 14:17:07;;;;;;;;;;;;;;;;;;5030976;28;46215;-83
2022/06/27 14:19:34;;;;;;;;;;;;;;;;;;5044882;28;47007;-84
2022/06/27 14:22:03;;;;;;;;;;;;;;;;;;5045349;28;42952;-80
2022/06/27 14:24:29;;;;;;;;;;;;;;;;;;5045239;28;46500;-81
2022/06/27 14:26:57;;;;;;;;;;;;;;;;;;5029174;28;48415;-82
2022/06/27 14:29:23;;;;;;;;;;;;;;;;;;5044415;28;44700;-81
2022/06/27 14:31:49;;;;;;;;;;;;;;;;;;5026198;28;44810;-81
2022/06/27 14:34:15;;;;;;;;;;;;;;;;;;5048772;28;47381;-81
2022/06/27 14:36:42;;;;;;;;;;;;;;;;;;5031013;28;45715;-83
2022/06/27 14:39:08;;;;;;;;;;;;;;;;;;5025836;28;46912;-81
2022/06/27 14:41:34;;;;;;;;;;;;;;;;;;5043677;28;45202;-84
2022/06/27 14:44:01;;;;;;;;;;;;;;;;;;5046516;28;48085;-84
2022/06/27 14:46:27;;;;;;;;;;;;;;;;;;5036832;28;46390;-82
2022/06/27 14:48:54;;;;;;;;;;;;;;;;;;5047428;28;45939;-85
2022/06/27 14:51:20;;;;;;;;;;;;;;;;;;5048222;28;46053;-81
2022/06/27 14:53:46;;;;;;;;;;;;;;;;;;5042633;28;47535;-83
2022/06/27 14:56:17;;;;;;;;;;;;;;;;;;5024766;28;44743;-84
2022/06/27 14:58:43;;;;;;;;;;;;;;;;;;5052154;28;45024;-82
2022/06/27 15:01:09;;;;;;;;;;;;;;;;;;5057107;28;46089;-80
2022/06/27 15:03:35;;;;;;;;;;;;;;;;;;5056069;28;44348;-83
2022/06/27 15:06:02;;;;;;;;;;;;;;;;;;5073965;28;46722;-86
2022/06/27 15:08:28;;;;;;;;;;;;;;;;;;5057888;28;45957;-85
2022/06/27 15:13:40;;;;;;;;;;;;;;;;;;5064759;28;46947;-80
2022/06/27 15:16:06;;;;;;;;;;;;;;;;;;5046781;28;43539;-80
2022/06/27 15:18:32;;;;;;;;;;;;;;;;;;5052486;28;46237;-82
2022/06/27 15:20:58;;;;;;;;;;;;;;;;;;5052169;28;45843;-83
2022/06/27 15:23:25;;;;;;;;;;;;;;;;;;5055740;28;44852;-80
2022/06/27 15:25:51;;;;;;;;;;;;;;;;;;5056526;28;46817;-80
2022/06/27 15:28:17;;;;;;;;;;;;;;;;;;5061757;28;45754;-80
2022/06/27 15:30:43;;;;;;;;;;;;;;;;;;5052562;28;46404;-79
2022/06/27 15:33:10;;;;;;;;;;;;;;;;;;5065246;28;47894;-79
2022/06/27 15:35:36;;;;;;;;;;;;;;;;;;5045431;28;45055;-79
2022/06/27 15:38:02;;;;;;;;;;;;;;;;;;5048539;28;46469;-80
2022/06/27 15:40:29;;;;;;;;;;;;;;;;;;5046047;28;48154;-80
2022/06/27 15:42:55;;;;;;;;;;;;;;;;;;5046602;28;44703;-80
2022/06/27 15:45:21;;;;;;;;;;;;;;;;;;5044854;28;47393;-80
2022/06/27 15:47:47;;;;;;;;;;;;;;;;;;5045425;28;45699;-80
2022/06/27 15:50:14;;;;;;;;;;;;;;;;;;5047353;28;44504;-80
2022/06/27 15:52:40;;;;;;;;;;;;;;;;;;5044347;28;47246;-80
2022/06/27 15:55:08;;;;;;;;;;;;;;;;;;5036468;28;46291;-80
2022/06/27 15:57:34;;;;;;;;;;;;;;;;;;5042274;28;46815;-80
2022/06/27 16:00:00;;;;;;;;;;;;;;;;;;5044191;28;47867;-80
2022/06/27 16:02:27;;;;;;;;;;;;;;;;;;5046332;28;43004;-80
2022/06/27 16:04:53;;;;;;;;;;;;;;;;;;5038681;28;46914;-80
2022/06/27 16:07:19;;;;;;;;;;;;;;;;;;5038797;28;44682;-80
2022/06/27 16:09:46;;;;;;;;;;;;;;;;;;5036997;28;46348;-80
2022/06/27 16:12:12;;;;;;;;;;;;;;;;;;5045249;28;45539;-80
2022/06/27 16:14:38;;;;;;;;;;;;;;;;;;5043829;28;45988;-80
2022/06/27 16:17:05;;;;;;;;;;;;;;;;;;5046528;28;46499;-80
2022/06/27 16:19:31;;;;;;;;;;;;;;;;;;5060668;28;48135;-80
2022/06/27 16:22:14;;;;;;;;;;;;;;;;;;5053197;28;44325;-80
2022/06/27 16:24:44;;;;;;;;;;;;;;;;;;5042509;28;45558;-80
2022/06/27 16:27:11;;;;;;;;;;;;;;;;;;5041321;28;43200;-80
2022/06/27 16:29:39;;;;;;;;;;;;;;;;;;5065221;28;44543;-80
2022/06/27 16:32:05;;;;;;;;;;;;;;;;;;5044960;28;47162;-80
2022/06/27 16:34:31;;;;;;;;;;;;;;;;;;5044158;28;44578;-80
2022/06/27 16:36:58;;;;;;;;;;;;;;;;;;5044838;28;43765;-80
2022/06/27 16:39:24;;;;;;;;;;;;;;;;;;5035396;28;46256;-81
2022/06/27 16:44:47;;;;;;;;;;;;;;;;;;5041744;28;47840;-81
2022/06/27 16:47:14;;;;;;;;;;;;;;;;;;5041600;28;44517;-81
2022/06/27 16:49:40;;;;;;;;;;;;;;;;;;5058685;28;44900;-80
2022/06/27 16:52:08;;;;;;;;;;;;;;;;;;5064093;28;47638;-79
2022/06/27 16:54:34;;;;;;;;;;;;;;;;;;5045673;28;44402;-80
2022/06/27 16:57:01;;;;;;;;;;;;;;;;;;5038338;28;45012;-80